createdAt,value
2018-02-16T04:59:24.861Z,19.53
2018-02-16T05:01:52.137Z,19.17
2018-02-16T05:04:19.401Z,19.20
2018-02-16T05:06:46.679Z,17.03
2018-02-16T05:09:13.940Z,16.23
2018-02-16T05:11:41.227Z,23.20
2018-02-16T05:14:08.491Z,17.20
2018-02-16T05:16:35.779Z,17.03
2018-02-16T05:19:03.029Z,16.07
2018-02-16T05:21:30.312Z,16.80
2018-02-16T05:23:57.585Z,16.07
2018-02-16T05:26:24.890Z,16.03
2018-02-16T05:28:52.155Z,14.73
2018-02-16T05:31:19.411Z,15.10
2018-02-16T05:33:46.692Z,15.63
2018-02-16T05:36:13.951Z,10.97
2018-02-16T05:38:41.223Z,12.50
2018-02-16T05:41:08.488Z,11.47
2018-02-16T05:43:35.776Z,13.00
2018-02-16T05:46:03.036Z,12.87
2018-02-16T05:48:30.313Z,12.63
2018-02-16T05:50:57.584Z,11.40
2018-02-16T05:53:24.860Z,10.50
2018-02-16T05:55:52.112Z,9.63
2018-02-16T05:58:19.686Z,8.43
2018-02-16T06:00:46.987Z,9.20
2018-02-16T06:03:14.265Z,10.70
2018-02-16T06:05:41.512Z,7.90
2018-02-16T06:08:08.796Z,8.07
2018-02-16T06:10:36.071Z,8.50
2018-02-16T06:13:03.329Z,8.30
2018-02-16T06:15:30.625Z,7.30
2018-02-16T06:17:57.874Z,7.20
2018-02-16T06:20:25.247Z,7.70
2018-02-16T06:22:52.529Z,7.90
2018-02-16T06:25:19.780Z,7.33
2018-02-16T06:27:47.068Z,8.23
2018-02-16T06:30:14.328Z,8.40
2018-02-16T06:32:41.584Z,7.10
2018-02-16T06:35:08.864Z,11.00
2018-02-16T06:37:36.127Z,11.33
2018-02-16T06:40:03.436Z,10.77
2018-02-16T06:42:30.692Z,9.57
2018-02-16T06:44:57.952Z,10.30
2018-02-16T06:47:25.237Z,9.03
2018-02-16T06:49:52.501Z,9.03
2018-02-16T06:52:19.779Z,10.17
2018-02-16T06:54:47.049Z,13.70
2018-02-16T06:57:14.332Z,8.70
2018-02-16T06:59:41.590Z,9.50
2018-02-16T07:02:09.659Z,10.37
2018-02-16T07:04:37.085Z,8.30
2018-02-16T07:07:04.372Z,10.77
2018-02-16T07:09:31.663Z,8.70
2018-02-16T07:11:58.945Z,11.53
2018-02-16T07:14:26.232Z,11.73
2018-02-16T07:16:53.887Z,11.23
2018-02-16T07:19:21.140Z,12.00
2018-02-16T07:21:48.403Z,10.20
2018-02-16T07:24:15.692Z,12.07
2018-02-16T07:26:42.964Z,10.80
2018-02-16T07:29:10.252Z,11.57
2018-02-16T07:31:37.908Z,9.87
2018-02-16T07:34:05.172Z,9.57
2018-02-16T07:36:32.430Z,10.87
2018-02-16T07:38:59.720Z,9.07
2018-02-16T07:41:27.011Z,12.30
2018-02-16T07:43:54.320Z,8.80
2018-02-16T07:46:21.610Z,8.50
2018-02-16T07:48:48.864Z,7.73
2018-02-16T07:51:16.157Z,7.90
2018-02-16T07:53:43.437Z,7.83
2018-02-16T07:56:10.722Z,7.20
2018-02-16T07:58:37.996Z,7.30
2018-02-16T08:01:05.248Z,7.37
2018-02-16T08:03:32.532Z,7.50
2018-02-16T08:05:59.786Z,6.77
2018-02-16T08:08:27.072Z,7.63
2018-02-16T08:10:54.336Z,7.90
2018-02-16T08:13:21.592Z,7.07
2018-02-16T08:15:48.870Z,7.20
2018-02-16T08:18:16.135Z,7.10
2018-02-16T08:20:43.415Z,8.07
2018-02-16T08:23:10.675Z,7.90
2018-02-16T08:25:37.964Z,8.37
2018-02-16T08:28:05.230Z,8.57
2018-02-16T08:30:32.480Z,7.90
2018-02-16T08:32:59.748Z,8.40
2018-02-16T08:35:27.003Z,7.57
2018-02-16T08:37:54.293Z,9.03
2018-02-16T08:40:21.553Z,9.20
2018-02-16T08:42:48.820Z,9.70
2018-02-16T08:45:16.092Z,9.33
2018-02-16T08:47:43.349Z,9.97
2018-02-16T08:50:10.668Z,9.27
2018-02-16T08:52:37.939Z,8.47
2018-02-16T08:55:05.204Z,10.50
2018-02-16T08:57:32.489Z,9.70
2018-02-16T08:59:59.739Z,9.43
2018-02-16T09:02:27.024Z,9.87
2018-02-16T09:04:54.284Z,10.03
2018-02-16T09:07:21.576Z,9.00
2018-02-16T09:09:48.828Z,9.70
2018-02-16T09:12:16.089Z,11.20
2018-02-16T09:14:43.371Z,10.37
2018-02-16T09:17:10.629Z,9.60
2018-02-16T09:19:37.908Z,11.30
2018-02-16T09:22:05.175Z,10.30
2018-02-16T09:24:32.469Z,9.87
2018-02-16T09:26:59.719Z,9.77
2018-02-16T09:29:27.014Z,9.03
2018-02-16T09:31:54.291Z,10.03
2018-02-16T09:34:21.554Z,10.00
2018-02-16T09:36:48.840Z,9.80
2018-02-16T09:39:20.026Z,10.20
2018-02-16T09:41:47.511Z,9.73
2018-02-16T09:44:14.776Z,10.40
2018-02-16T09:46:42.031Z,9.33
2018-02-16T09:49:09.316Z,10.30
2018-02-16T09:51:36.610Z,11.07
2018-02-16T09:54:03.867Z,10.10
2018-02-16T09:56:31.154Z,10.30
2018-02-16T09:58:58.425Z,9.23
2018-02-16T10:01:25.701Z,9.67
2018-02-16T10:03:52.955Z,7.90
2018-02-16T10:06:20.239Z,8.63
2018-02-16T10:08:47.492Z,9.63
2018-02-16T10:11:14.770Z,8.30
2018-02-16T10:13:42.040Z,8.20
2018-02-16T10:16:09.320Z,7.40
2018-02-16T10:18:36.592Z,7.67
2018-02-16T10:21:03.876Z,6.53
2018-02-16T10:23:31.164Z,5.93
2018-02-16T10:25:58.456Z,5.93
2018-02-16T10:28:25.708Z,6.27
2018-02-16T10:30:52.971Z,7.30
2018-02-16T10:33:20.260Z,5.20
2018-02-16T10:35:47.517Z,5.30
2018-02-16T10:38:14.780Z,5.60
2018-02-16T10:40:42.068Z,5.30
2018-02-16T10:43:09.356Z,5.33
2018-02-16T10:45:36.607Z,5.00
2018-02-16T10:48:03.859Z,4.50
2018-02-16T10:50:31.146Z,5.00
2018-02-16T10:52:58.505Z,5.30
2018-02-16T10:55:25.761Z,5.13
2018-02-16T10:57:53.014Z,4.77
2018-02-16T11:00:26.066Z,5.40
2018-02-16T11:02:58.920Z,5.03
2018-02-16T11:05:31.948Z,5.43
2018-02-16T11:07:59.213Z,4.40
2018-02-16T11:10:26.540Z,4.20
2018-02-16T11:12:53.823Z,4.77
2018-02-16T11:15:21.124Z,3.53
2018-02-16T11:17:48.384Z,3.70
2018-02-16T11:20:15.679Z,4.33
2018-02-16T11:22:43.027Z,3.47
2018-02-16T11:25:10.363Z,3.17
2018-02-16T11:27:37.616Z,3.50
2018-02-16T11:30:04.872Z,3.63
2018-02-16T11:32:32.232Z,3.10
2018-02-16T11:34:59.512Z,3.33
2018-02-16T11:37:26.769Z,3.03
2018-02-16T11:39:54.096Z,3.70
2018-02-16T11:42:21.456Z,3.10
2018-02-16T11:44:48.730Z,3.80
2018-02-16T11:47:15.985Z,3.67
2018-02-16T11:49:43.244Z,4.07
2018-02-16T11:52:10.535Z,3.80
2018-02-16T11:54:37.820Z,3.93
2018-02-16T11:57:05.089Z,3.53
2018-02-16T11:59:32.363Z,3.77
2018-02-16T12:01:59.706Z,3.47
2018-02-16T12:04:26.948Z,3.50
2018-02-16T12:06:54.232Z,3.70
2018-02-16T12:09:21.535Z,3.57
2018-02-16T12:11:48.824Z,3.60
2018-02-16T12:14:16.081Z,3.20
2018-02-16T12:16:43.336Z,3.47
2018-02-16T12:19:10.616Z,3.30
2018-02-16T12:21:37.872Z,2.87
2018-02-16T12:24:05.134Z,4.17
2018-02-16T12:26:32.415Z,3.40
2018-02-16T12:28:59.692Z,2.80
2018-02-16T12:31:26.947Z,3.37
2018-02-16T12:33:54.220Z,2.47
2018-02-16T12:36:21.491Z,3.00
2018-02-16T12:38:48.784Z,2.73
2018-02-16T12:41:16.050Z,3.20
2018-02-16T12:43:43.296Z,3.17
2018-02-16T12:46:10.568Z,2.93
2018-02-16T12:48:37.826Z,3.10
2018-02-16T12:51:05.100Z,2.70
2018-02-16T12:53:32.435Z,2.83
2018-02-16T12:55:59.698Z,3.30
2018-02-16T12:58:27.018Z,3.27
2018-02-16T13:00:54.252Z,2.83
2018-02-16T13:03:21.685Z,2.90
2018-02-16T13:05:49.141Z,3.10
2018-02-16T13:08:16.383Z,3.10
2018-02-16T13:10:43.665Z,3.20
2018-02-16T13:13:10.925Z,3.50
2018-02-16T13:15:38.205Z,3.00
2018-02-16T13:18:05.468Z,4.20
2018-02-16T13:20:32.760Z,3.30
2018-02-16T13:23:00.046Z,2.90
2018-02-16T13:25:27.320Z,3.33
2018-02-16T13:27:54.583Z,3.47
2018-02-16T13:30:21.934Z,3.23
2018-02-16T13:32:49.176Z,2.90
2018-02-16T13:35:16.455Z,3.50
2018-02-16T13:37:43.743Z,3.47
2018-02-16T13:40:11.000Z,3.13
2018-02-16T13:42:38.280Z,3.53
2018-02-16T13:45:05.551Z,3.17
2018-02-16T13:47:32.825Z,3.07
2018-02-16T13:50:00.150Z,3.17
2018-02-16T13:52:27.387Z,2.97
2018-02-16T13:54:54.664Z,2.90
2018-02-16T13:57:21.943Z,3.33
2018-02-16T13:59:49.213Z,4.27
2018-02-16T14:02:16.471Z,2.80
2018-02-16T14:04:43.752Z,3.77
2018-02-16T14:07:10.996Z,3.17
2018-02-16T14:09:38.298Z,2.90
2018-02-16T14:12:05.548Z,3.70
2018-02-16T14:14:32.804Z,3.23
2018-02-16T14:17:00.080Z,3.80
2018-02-16T14:19:27.366Z,3.60
2018-02-16T14:21:54.620Z,3.93
2018-02-16T14:24:21.901Z,3.40
2018-02-16T14:26:49.175Z,3.30
2018-02-16T14:29:16.512Z,4.60
2018-02-16T14:31:43.748Z,4.20
2018-02-16T14:34:10.999Z,3.40
2018-02-16T14:36:38.293Z,3.60
2018-02-16T14:39:05.549Z,3.83
2018-02-16T14:41:32.931Z,3.50
2018-02-16T14:44:00.341Z,3.57
2018-02-16T14:46:27.592Z,3.23
2018-02-16T14:48:54.965Z,3.87
2018-02-16T14:51:22.208Z,3.17
2018-02-16T14:53:49.512Z,3.40
2018-02-16T14:56:16.757Z,4.00
2018-02-16T14:58:44.059Z,4.07
2018-02-16T15:01:11.327Z,3.70
2018-02-16T15:03:38.627Z,3.43
2018-02-16T15:06:05.888Z,3.50
2018-02-16T15:08:33.196Z,4.03
2018-02-16T15:11:00.473Z,3.30
2018-02-16T15:13:27.838Z,3.23
2018-02-16T15:15:55.092Z,3.27
2018-02-16T15:18:22.416Z,3.93
2018-02-16T15:20:49.693Z,2.80
2018-02-16T15:23:16.936Z,3.40
2018-02-16T15:25:44.212Z,4.00
2018-02-16T15:28:11.536Z,3.90
2018-02-16T15:30:38.823Z,3.23
2018-02-16T15:33:06.107Z,3.57
2018-02-16T15:35:33.361Z,3.70
2018-02-16T15:38:00.642Z,3.20
2018-02-16T15:40:27.928Z,4.10
2018-02-16T15:42:55.213Z,3.40
2018-02-16T15:45:22.498Z,3.90
2018-02-16T15:47:49.756Z,4.80
2018-02-16T15:50:17.048Z,3.87
2018-02-16T15:52:44.301Z,3.93
2018-02-16T15:55:11.556Z,3.40
2018-02-16T15:57:38.832Z,3.20
2018-02-16T16:00:06.103Z,3.10
2018-02-16T16:02:33.376Z,2.83
2018-02-16T16:05:00.681Z,3.37
2018-02-16T16:07:27.936Z,3.27
2018-02-16T16:09:55.217Z,3.10
2018-02-16T16:12:22.496Z,3.20
2018-02-16T16:14:49.856Z,2.90
2018-02-16T16:17:17.128Z,3.60
2018-02-16T16:19:44.384Z,3.33
2018-02-16T16:22:11.660Z,3.50
2018-02-16T16:24:38.968Z,2.93
2018-02-16T16:27:06.244Z,3.60
2018-02-16T16:29:33.504Z,3.60
2018-02-16T16:32:00.767Z,3.57
2018-02-16T16:34:28.037Z,2.87
2018-02-16T16:36:55.315Z,3.80
2018-02-16T16:39:22.608Z,3.67
2018-02-16T16:41:49.855Z,3.40
2018-02-16T16:44:17.108Z,3.40
2018-02-16T16:46:44.394Z,4.17
2018-02-16T16:49:11.685Z,3.00
2018-02-16T16:51:38.937Z,3.73
2018-02-16T16:54:06.212Z,4.00
2018-02-16T16:56:33.501Z,3.63
2018-02-16T16:59:00.758Z,3.83
2018-02-16T17:01:28.036Z,3.77
2018-02-16T17:03:55.289Z,3.27
2018-02-16T17:06:22.576Z,3.83
2018-02-16T17:08:49.827Z,3.10
2018-02-16T17:11:17.125Z,3.57
2018-02-16T17:13:44.436Z,3.13
2018-02-16T17:16:11.719Z,3.03
2018-02-16T17:18:39.056Z,4.03
2018-02-16T17:21:06.336Z,2.87
2018-02-16T17:23:33.610Z,3.47
2018-02-16T17:26:00.860Z,3.57
2018-02-16T17:28:28.144Z,2.70
2018-02-16T17:30:55.387Z,3.10
2018-02-16T17:33:22.664Z,2.70
2018-02-16T17:35:49.937Z,2.63
2018-02-16T17:38:17.212Z,2.97
2018-02-16T17:40:44.475Z,2.53
2018-02-16T17:43:11.753Z,3.40
2018-02-16T17:45:39.965Z,3.90
2018-02-16T17:48:07.220Z,2.57
2018-02-16T17:50:34.478Z,3.50
2018-02-16T17:53:01.836Z,3.00
2018-02-16T17:55:29.092Z,3.80
2018-02-16T17:57:56.377Z,3.33
2018-02-16T18:00:23.685Z,3.27
2018-02-16T18:02:50.931Z,3.47
2018-02-16T18:05:18.204Z,2.93
2018-02-16T18:07:45.482Z,3.20
2018-02-16T18:10:12.740Z,3.40
2018-02-16T18:12:40.031Z,2.57
2018-02-16T18:15:07.280Z,2.77
2018-02-16T18:17:34.580Z,3.13
2018-02-16T18:20:01.904Z,2.90
2018-02-16T18:22:29.154Z,3.30
2018-02-16T18:24:56.427Z,2.63
2018-02-16T18:27:23.676Z,3.47
2018-02-16T18:29:50.951Z,3.50
2018-02-16T18:32:18.204Z,2.70
2018-02-16T18:34:45.487Z,3.23
2018-02-16T18:37:13.179Z,2.90
2018-02-16T18:39:46.438Z,2.87
2018-02-16T18:42:13.694Z,2.90
2018-02-16T18:44:40.964Z,2.67
2018-02-16T18:47:08.224Z,3.47
2018-02-16T18:49:35.508Z,2.93
2018-02-16T18:52:02.776Z,2.83
2018-02-16T18:54:30.121Z,3.10
2018-02-16T18:56:57.399Z,2.40
2018-02-16T18:59:24.655Z,2.50
